createdAt,value
2023-11-05T00:02:18.796Z,5.35
2023-11-05T00:04:46.679Z,5.36
2023-11-05T00:07:14.709Z,5.37
2023-11-05T00:09:43.310Z,5.39
2023-11-05T00:12:11.171Z,5.40
2023-11-05T00:14:39.032Z,5.43
2023-11-05T00:17:07.127Z,5.47
2023-11-05T00:19:35.437Z,5.52
2023-11-05T00:22:03.351Z,5.53
2023-11-05T00:24:31.273Z,5.53
2023-11-05T00:26:59.170Z,5.52
2023-11-05T00:29:27.067Z,5.49
2023-11-05T00:31:54.896Z,5.47
2023-11-05T00:34:22.998Z,5.48
2023-11-05T00:36:50.939Z,5.50
2023-11-05T00:39:18.816Z,5.54
2023-11-05T00:41:46.768Z,5.56
2023-11-05T00:44:14.737Z,5.56
2023-11-05T00:46:42.701Z,5.54
2023-11-05T00:49:11.726Z,5.51
2023-11-05T00:51:39.577Z,5.50
2023-11-05T00:54:07.603Z,5.49
2023-11-05T00:56:35.869Z,5.51
2023-11-05T00:59:04.057Z,5.57
2023-11-05T01:01:32.081Z,5.61
2023-11-05T01:04:00.078Z,5.62
2023-11-05T01:06:28.028Z,5.64
2023-11-05T01:08:55.966Z,5.64
2023-11-05T01:11:23.796Z,5.65
2023-11-05T01:13:51.652Z,5.67
2023-11-05T01:16:19.712Z,5.73
2023-11-05T01:18:48.116Z,5.78
2023-11-05T01:21:16.137Z,5.82
2023-11-05T01:23:44.015Z,5.85
2023-11-05T01:26:12.352Z,5.86
2023-11-05T01:28:41.520Z,5.84
2023-11-05T01:31:09.423Z,5.83
2023-11-05T01:33:37.474Z,5.80
2023-11-05T01:36:06.885Z,5.80
2023-11-05T01:38:34.836Z,5.82
2023-11-05T01:41:02.731Z,5.87
2023-11-05T01:43:30.672Z,5.90
2023-11-05T01:45:58.764Z,5.92
2023-11-05T01:48:27.787Z,5.92
2023-11-05T01:50:57.215Z,5.92
2023-11-05T01:53:26.815Z,5.92
2023-11-05T01:55:54.971Z,5.90
2023-11-05T01:58:24.300Z,5.90
2023-11-05T02:00:53.062Z,5.94
2023-11-05T02:03:20.944Z,5.98
2023-11-05T02:05:49.893Z,6.03
2023-11-05T02:08:17.785Z,6.06
2023-11-05T02:10:46.848Z,6.09
2023-11-05T02:13:14.681Z,6.11
2023-11-05T02:15:42.721Z,6.13
2023-11-05T02:18:10.641Z,6.14
2023-11-05T02:20:38.736Z,6.19
2023-11-05T02:23:08.915Z,6.25
2023-11-05T02:25:36.787Z,6.31
2023-11-05T02:28:05.126Z,6.35
2023-11-05T02:30:33.424Z,6.38
2023-11-05T02:33:02.057Z,6.40
2023-11-05T02:35:30.312Z,6.40
2023-11-05T02:37:58.196Z,6.38
2023-11-05T02:40:26.178Z,6.37
2023-11-05T02:42:53.996Z,6.41
2023-11-05T02:45:21.900Z,6.43
2023-11-05T02:47:50.327Z,6.42
2023-11-05T02:50:18.245Z,6.39
2023-11-05T02:52:46.165Z,6.36
2023-11-05T02:55:14.233Z,6.33
2023-11-05T02:57:42.151Z,6.28
2023-11-05T03:00:12.135Z,6.24
2023-11-05T03:02:40.658Z,6.24
2023-11-05T03:05:09.209Z,6.24
2023-11-05T03:07:37.183Z,6.25
2023-11-05T03:10:05.845Z,6.26
2023-11-05T03:12:33.702Z,6.22
2023-11-05T03:15:01.813Z,6.18
2023-11-05T03:17:29.845Z,6.17
2023-11-05T03:19:57.796Z,6.18
2023-11-05T03:22:25.681Z,6.22
2023-11-05T03:24:53.813Z,6.31
2023-11-05T03:27:21.629Z,6.42
2023-11-05T03:29:49.516Z,6.51
2023-11-05T03:32:17.423Z,6.56
2023-11-05T03:34:46.393Z,6.59
2023-11-05T03:37:14.311Z,6.61
2023-11-05T03:39:42.133Z,6.60
2023-11-05T03:42:10.195Z,6.59
2023-11-05T03:44:38.224Z,6.57
2023-11-05T03:47:06.711Z,6.54
2023-11-05T03:49:34.621Z,6.57
2023-11-05T03:52:02.847Z,6.58
2023-11-05T03:54:31.019Z,6.58
2023-11-05T03:57:00.786Z,6.57
2023-11-05T03:59:28.949Z,6.56
2023-11-05T04:01:56.836Z,6.54
2023-11-05T04:04:25.100Z,6.52
2023-11-05T04:06:52.949Z,6.48
2023-11-05T04:09:20.768Z,6.48
2023-11-05T04:11:48.655Z,6.52
2023-11-05T04:14:17.018Z,6.58
2023-11-05T04:16:44.938Z,6.65
2023-11-05T04:19:13.873Z,6.70
2023-11-05T04:21:41.823Z,6.75
2023-11-05T04:24:09.747Z,6.80
2023-11-05T04:26:37.569Z,6.84
2023-11-05T04:29:05.529Z,6.89
2023-11-05T04:31:33.403Z,6.93
2023-11-05T04:34:02.681Z,7.01
2023-11-05T04:36:30.570Z,7.09
2023-11-05T04:38:58.450Z,7.14
2023-11-05T04:41:26.306Z,7.15
2023-11-05T04:43:54.187Z,7.15
2023-11-05T04:46:22.019Z,7.16
2023-11-05T04:48:49.967Z,7.18
2023-11-05T04:51:18.019Z,7.18
2023-11-05T04:53:45.917Z,7.23
2023-11-05T04:56:17.477Z,7.30
2023-11-05T04:58:45.367Z,7.38
2023-11-05T05:01:13.302Z,7.44
2023-11-05T05:03:41.309Z,7.48
2023-11-05T05:06:09.431Z,7.54
2023-11-05T05:08:37.302Z,7.57
2023-11-05T05:11:05.719Z,7.59
2023-11-05T05:13:33.593Z,7.59
2023-11-05T05:16:02.514Z,7.58
2023-11-05T05:18:30.475Z,7.61
2023-11-05T05:20:58.344Z,7.63
2023-11-05T05:23:26.271Z,7.69
2023-11-05T05:25:54.164Z,7.71
2023-11-05T05:28:22.166Z,7.70
2023-11-05T05:30:50.085Z,7.72
2023-11-05T05:33:17.965Z,7.70
2023-11-05T05:35:45.993Z,7.71
2023-11-05T05:38:13.808Z,7.70
2023-11-05T05:40:41.696Z,7.73
2023-11-05T05:43:09.584Z,7.77
2023-11-05T05:45:37.397Z,7.82
2023-11-05T05:48:05.619Z,7.85
2023-11-05T05:50:33.474Z,7.86
2023-11-05T05:53:01.307Z,7.87
2023-11-05T05:55:29.338Z,7.88
2023-11-05T05:57:57.631Z,7.88
2023-11-05T06:00:25.607Z,7.87
2023-11-05T06:02:53.932Z,7.87
2023-11-05T06:05:22.047Z,7.88
2023-11-05T06:07:49.962Z,7.91
2023-11-05T06:10:18.081Z,7.98
2023-11-05T06:12:45.947Z,8.03
2023-11-05T06:15:13.905Z,8.05
2023-11-05T06:17:42.257Z,8.06
2023-11-05T06:20:10.981Z,8.07
2023-11-05T06:22:39.741Z,8.09
2023-11-05T06:25:11.951Z,8.11
2023-11-05T06:27:40.967Z,8.11
2023-11-05T06:30:11.179Z,8.15
2023-11-05T06:32:40.111Z,8.21
2023-11-05T06:35:08.578Z,8.30
2023-11-05T06:37:36.554Z,8.37
2023-11-05T06:40:06.086Z,8.41
2023-11-05T06:42:33.993Z,8.46
2023-11-05T06:45:01.972Z,8.49
2023-11-05T06:47:30.369Z,8.54
2023-11-05T06:49:58.378Z,8.60
2023-11-05T06:52:27.907Z,8.64
2023-11-05T06:54:57.763Z,8.68
2023-11-05T06:57:25.959Z,8.73
2023-11-05T06:59:53.848Z,8.81
2023-11-05T07:02:21.684Z,8.89
2023-11-05T07:04:49.704Z,8.94
2023-11-05T07:07:19.627Z,9.01
2023-11-05T07:09:49.326Z,9.05
2023-11-05T07:12:17.294Z,9.08
2023-11-05T07:14:45.126Z,9.15
2023-11-05T07:17:13.612Z,9.18
2023-11-05T07:19:41.468Z,9.21
2023-11-05T07:22:09.432Z,9.24
2023-11-05T07:24:37.338Z,9.29
2023-11-05T07:27:06.314Z,9.33
2023-11-05T07:29:34.129Z,9.38
2023-11-05T07:32:02.038Z,9.48
2023-11-05T07:34:29.905Z,9.55
2023-11-05T07:36:58.383Z,9.63
2023-11-05T07:39:26.264Z,9.66
2023-11-05T07:41:54.132Z,9.67
2023-11-05T07:44:22.238Z,9.63
2023-11-05T07:46:50.112Z,9.65
2023-11-05T07:49:17.970Z,9.61
2023-11-05T07:51:45.920Z,9.57
2023-11-05T07:54:13.841Z,9.51
2023-11-05T07:56:41.755Z,9.45
2023-11-05T07:59:09.667Z,9.43
2023-11-05T08:01:37.920Z,9.42
2023-11-05T08:04:05.842Z,9.39
2023-11-05T08:06:33.637Z,9.36
2023-11-05T08:09:01.508Z,9.33
2023-11-05T08:11:29.380Z,9.28
2023-11-05T08:13:57.906Z,9.22
2023-11-05T08:16:28.002Z,9.14
2023-11-05T08:18:55.974Z,9.04
2023-11-05T08:21:24.966Z,8.97
2023-11-05T08:23:53.017Z,8.92
2023-11-05T08:26:21.013Z,8.86
2023-11-05T08:28:49.226Z,8.75
2023-11-05T08:31:17.206Z,8.66
2023-11-05T08:33:47.424Z,8.57
2023-11-05T08:36:16.903Z,8.47
2023-11-05T08:38:44.739Z,8.40
2023-11-05T08:41:12.630Z,8.34
2023-11-05T08:43:40.708Z,8.29
2023-11-05T08:46:10.443Z,8.24
2023-11-05T08:48:38.572Z,8.19
2023-11-05T08:51:06.650Z,8.11
2023-11-05T08:53:34.536Z,8.06
2023-11-05T08:56:03.175Z,8.05
2023-11-05T08:58:31.353Z,8.06
2023-11-05T09:01:00.985Z,8.08
2023-11-05T09:03:28.974Z,8.10
2023-11-05T09:05:56.884Z,8.11
2023-11-05T09:08:24.945Z,8.10
2023-11-05T09:10:53.050Z,8.14
2023-11-05T09:13:21.027Z,8.14
2023-11-05T09:15:51.238Z,8.18
2023-11-05T09:18:19.302Z,8.24
2023-11-05T09:20:47.188Z,8.25
2023-11-05T09:23:15.088Z,8.27
2023-11-05T09:25:43.038Z,8.25
2023-11-05T09:28:11.023Z,8.24
2023-11-05T09:30:38.918Z,8.24
2023-11-05T09:33:07.041Z,8.26
2023-11-05T09:35:34.986Z,8.23
2023-11-05T09:38:04.260Z,8.24
2023-11-05T09:40:35.585Z,8.24
2023-11-05T09:43:11.681Z,8.22
2023-11-05T09:45:39.638Z,8.21
2023-11-05T09:48:09.860Z,8.23
2023-11-05T09:50:38.836Z,8.25
2023-11-05T09:53:08.683Z,8.29
2023-11-05T09:55:36.640Z,8.32
2023-11-05T09:58:04.682Z,8.37
2023-11-05T10:00:34.141Z,8.42
2023-11-05T10:03:10.028Z,8.48
2023-11-05T10:05:40.391Z,8.52
2023-11-05T10:08:09.835Z,8.56
2023-11-05T10:10:40.084Z,8.63
2023-11-05T10:13:08.228Z,8.69
2023-11-05T10:15:41.208Z,8.73
2023-11-05T10:18:19.770Z,8.76
2023-11-05T10:20:50.753Z,8.79
2023-11-05T10:23:18.801Z,8.80
2023-11-05T10:25:54.280Z,8.82
2023-11-05T10:28:24.260Z,8.86
2023-11-05T10:30:56.449Z,8.90
2023-11-05T10:33:26.443Z,8.92
2023-11-05T10:35:55.091Z,8.95
2023-11-05T10:38:24.676Z,8.95
2023-11-05T10:40:53.446Z,8.95
2023-11-05T10:43:25.167Z,8.96
2023-11-05T10:45:55.564Z,8.96
2023-11-05T10:48:23.555Z,8.99
2023-11-05T10:50:54.548Z,9.00
2023-11-05T10:53:23.968Z,9.02
2023-11-05T10:55:52.838Z,9.00
2023-11-05T10:58:25.318Z,8.96
2023-11-05T11:01:04.582Z,8.91
2023-11-05T11:03:32.647Z,8.90
2023-11-05T11:06:01.905Z,8.84
2023-11-05T11:08:31.952Z,8.79
2023-11-05T11:11:13.353Z,8.74
2023-11-05T11:13:58.832Z,8.74
2023-11-05T11:16:33.608Z,8.75
2023-11-05T11:19:08.326Z,8.74
2023-11-05T11:21:59.116Z,8.78
2023-11-05T11:24:41.684Z,8.77
2023-11-05T11:27:16.039Z,8.78
2023-11-05T11:29:46.558Z,8.77
2023-11-05T11:32:17.626Z,8.79
2023-11-05T11:34:46.266Z,8.82
2023-11-05T11:37:16.119Z,8.84
2023-11-05T11:39:44.173Z,8.88
2023-11-05T11:42:12.740Z,8.89
2023-11-05T11:44:40.678Z,8.85
2023-11-05T11:47:09.424Z,8.81
2023-11-05T11:49:37.511Z,8.77
2023-11-05T11:52:06.053Z,8.75
2023-11-05T11:54:34.067Z,8.75
2023-11-05T11:57:02.098Z,8.74
2023-11-05T11:59:30.123Z,8.73
2023-11-05T12:01:58.802Z,8.73
2023-11-05T12:04:27.487Z,8.77
2023-11-05T12:06:55.425Z,8.81
2023-11-05T12:09:25.085Z,8.87
2023-11-05T12:11:53.846Z,8.89
2023-11-05T12:14:29.173Z,8.90
2023-11-05T12:16:57.356Z,8.89
2023-11-05T12:19:26.011Z,8.90
2023-11-05T12:21:54.873Z,8.92
2023-11-05T12:24:23.042Z,8.98
2023-11-05T12:26:51.044Z,9.00
2023-11-05T12:29:20.380Z,9.03
2023-11-05T12:31:49.283Z,9.04
2023-11-05T12:34:17.168Z,9.03
2023-11-05T12:36:45.400Z,9.00
2023-11-05T12:39:13.656Z,8.97
2023-11-05T12:41:43.692Z,8.95
2023-11-05T12:44:11.759Z,8.96
2023-11-05T12:46:39.701Z,8.96
2023-11-05T12:49:07.737Z,8.92
2023-11-05T12:51:36.137Z,8.88
2023-11-05T12:54:05.225Z,8.86
2023-11-05T12:56:33.221Z,8.86
2023-11-05T12:59:01.548Z,8.81
2023-11-05T13:01:29.852Z,8.90
2023-11-05T13:03:58.587Z,8.94
2023-11-05T13:06:28.201Z,8.99
2023-11-05T13:08:56.411Z,9.04
2023-11-05T13:11:25.366Z,9.09
2023-11-05T13:13:53.501Z,9.18
2023-11-05T13:16:22.597Z,9.24
2023-11-05T13:18:50.925Z,9.29
2023-11-05T13:21:19.196Z,9.35
2023-11-05T13:23:47.842Z,9.40
2023-11-05T13:26:18.533Z,9.45
2023-11-05T13:28:46.434Z,9.47
2023-11-05T13:31:14.455Z,9.49
2023-11-05T13:33:42.783Z,9.51
2023-11-05T13:36:10.795Z,9.51
2023-11-05T13:38:38.880Z,9.53
2023-11-05T13:41:07.589Z,9.59
2023-11-05T13:43:35.602Z,9.67
2023-11-05T13:46:04.294Z,9.72
2023-11-05T13:48:32.641Z,9.86
2023-11-05T13:51:01.063Z,10.08
2023-11-05T13:53:28.901Z,10.42
2023-11-05T13:55:56.830Z,11.01
2023-11-05T13:58:24.743Z,11.73
2023-11-05T14:00:55.414Z,12.32
2023-11-05T14:03:23.488Z,12.75
2023-11-05T14:05:51.736Z,13.16
2023-11-05T14:08:19.817Z,13.64
2023-11-05T14:10:50.431Z,14.06
2023-11-05T14:13:18.814Z,14.44
2023-11-05T14:15:46.710Z,14.90
2023-11-05T14:18:14.739Z,15.42
2023-11-05T14:20:42.834Z,15.82
2023-11-05T14:23:13.619Z,16.18
2023-11-05T14:25:43.192Z,16.34
2023-11-05T14:28:11.602Z,16.43
2023-11-05T14:30:39.474Z,16.44
2023-11-05T14:33:07.516Z,15.91
2023-11-05T14:35:35.514Z,14.96
2023-11-05T14:38:05.083Z,14.27
2023-11-05T14:40:33.261Z,13.57
2023-11-05T14:43:03.559Z,13.00
2023-11-05T14:45:33.044Z,12.51
2023-11-05T14:48:02.493Z,12.07
2023-11-05T14:50:31.415Z,11.67
2023-11-05T14:53:00.365Z,11.31
2023-11-05T14:55:28.423Z,11.06
2023-11-05T14:57:56.676Z,10.77
2023-11-05T15:00:24.589Z,10.49
2023-11-05T15:02:52.610Z,10.31
2023-11-05T15:05:21.311Z,10.14
2023-11-05T15:07:49.600Z,9.95
2023-11-05T15:10:18.084Z,9.76
2023-11-05T15:12:45.946Z,9.59
2023-11-05T15:15:13.954Z,9.42
2023-11-05T15:17:43.850Z,9.23
2023-11-05T15:20:11.987Z,9.00
2023-11-05T15:22:43.098Z,8.86
2023-11-05T15:25:11.626Z,8.75
2023-11-05T15:27:39.642Z,8.64
2023-11-05T15:30:09.853Z,8.54
2023-11-05T15:32:38.941Z,8.43
2023-11-05T15:35:07.430Z,8.31
2023-11-05T15:37:35.547Z,8.10
2023-11-05T15:40:05.369Z,7.97
2023-11-05T15:42:37.941Z,7.88
2023-11-05T15:45:06.306Z,7.78
2023-11-05T15:47:34.474Z,7.56
2023-11-05T15:50:02.423Z,7.43
2023-11-05T15:52:30.417Z,7.39
2023-11-05T15:54:58.447Z,7.34
2023-11-05T15:57:26.269Z,7.29
2023-11-05T15:59:54.128Z,7.26
2023-11-05T16:02:21.985Z,7.29
2023-11-05T16:04:50.219Z,7.19
2023-11-05T16:07:21.948Z,7.06
2023-11-05T16:09:51.058Z,7.03
2023-11-05T16:12:21.508Z,6.98
2023-11-05T16:14:51.483Z,6.98
2023-11-05T16:17:20.342Z,6.92
2023-11-05T16:19:49.529Z,6.77
2023-11-05T16:22:17.565Z,6.71
2023-11-05T16:24:45.801Z,6.62
2023-11-05T16:27:13.978Z,6.53
2023-11-05T16:29:42.021Z,6.50
2023-11-05T16:32:09.971Z,6.54
2023-11-05T16:34:42.888Z,6.58
2023-11-05T16:37:11.067Z,6.56
2023-11-05T16:39:41.742Z,6.44
2023-11-05T16:42:11.301Z,6.28
2023-11-05T16:44:39.373Z,6.24
2023-11-05T16:47:11.461Z,6.28
2023-11-05T16:49:41.195Z,6.37
2023-11-05T16:52:09.295Z,6.41
2023-11-05T16:54:38.351Z,6.46
2023-11-05T16:57:08.377Z,6.53
2023-11-05T16:59:38.848Z,6.48
2023-11-05T17:02:10.824Z,6.52
2023-11-05T17:04:40.373Z,6.60
2023-11-05T17:07:08.758Z,6.67
2023-11-05T17:09:36.746Z,6.67
2023-11-05T17:12:05.067Z,6.67
2023-11-05T17:14:33.218Z,6.77
2023-11-05T17:17:02.207Z,6.96
2023-11-05T17:19:30.631Z,7.09
2023-11-05T17:21:58.712Z,7.14
2023-11-05T17:24:26.802Z,7.17
2023-11-05T17:26:55.747Z,7.22
2023-11-05T17:29:23.787Z,7.27
2023-11-05T17:31:51.806Z,7.35
2023-11-05T17:34:19.872Z,7.44
2023-11-05T17:36:48.186Z,7.57
2023-11-05T17:39:16.082Z,7.68
2023-11-05T17:41:44.654Z,7.82
2023-11-05T17:44:13.180Z,7.95
2023-11-05T17:46:41.108Z,8.03
2023-11-05T17:49:11.255Z,8.11
2023-11-05T17:51:39.229Z,8.18
2023-11-05T17:54:07.397Z,8.26
2023-11-05T17:56:35.261Z,8.33
2023-11-05T17:59:03.268Z,8.37
2023-11-05T18:01:31.316Z,8.41
2023-11-05T18:03:59.338Z,8.47
2023-11-05T18:06:27.240Z,8.52
2023-11-05T18:08:55.631Z,8.56
2023-11-05T18:11:25.310Z,8.59
2023-11-05T18:13:53.243Z,8.63
2023-11-05T18:16:21.390Z,8.69
2023-11-05T18:18:49.317Z,8.73
2023-11-05T18:21:17.257Z,8.80
2023-11-05T18:23:45.121Z,8.83
2023-11-05T18:26:13.059Z,8.87
2023-11-05T18:28:41.000Z,8.92
2023-11-05T18:31:09.169Z,8.94
2023-11-05T18:33:37.212Z,8.96
2023-11-05T18:36:05.599Z,8.95
2023-11-05T18:38:33.807Z,8.93
2023-11-05T18:41:02.529Z,8.95
2023-11-05T18:43:30.465Z,8.99
2023-11-05T18:46:00.666Z,8.99
2023-11-05T18:48:29.339Z,9.00
2023-11-05T18:50:57.258Z,9.01
2023-11-05T18:53:25.158Z,9.04
2023-11-05T18:55:53.076Z,9.06
2023-11-05T18:58:21.322Z,9.06
2023-11-05T19:00:49.147Z,9.05
2023-11-05T19:03:17.195Z,9.05
2023-11-05T19:05:45.309Z,9.07
2023-11-05T19:08:13.347Z,9.09
2023-11-05T19:10:42.373Z,9.11
2023-11-05T19:13:10.336Z,9.10
2023-11-05T19:15:38.181Z,9.09
2023-11-05T19:18:06.164Z,9.07
2023-11-05T19:20:34.051Z,9.07
2023-11-05T19:23:01.982Z,9.05
2023-11-05T19:25:29.844Z,9.02
2023-11-05T19:27:57.766Z,8.98
2023-11-05T19:30:25.625Z,8.97
2023-11-05T19:32:53.607Z,8.95
2023-11-05T19:35:21.702Z,8.91
2023-11-05T19:37:49.582Z,8.86
2023-11-05T19:40:17.443Z,8.84
2023-11-05T19:42:46.512Z,8.81
2023-11-05T19:45:14.415Z,8.80
2023-11-05T19:47:43.725Z,8.83
2023-11-05T19:50:14.791Z,8.84
2023-11-05T19:52:43.196Z,8.84
2023-11-05T19:55:11.349Z,8.81
2023-11-05T19:57:39.310Z,8.80
2023-11-05T20:00:07.912Z,8.83
2023-11-05T20:02:41.104Z,8.89
2023-11-05T20:05:10.685Z,8.90
2023-11-05T20:07:39.027Z,8.91
2023-11-05T20:10:07.337Z,8.94
2023-11-05T20:12:38.633Z,8.98
2023-11-05T20:15:07.812Z,9.02
2023-11-05T20:17:37.173Z,9.05
2023-11-05T20:20:05.717Z,9.12
2023-11-05T20:22:34.344Z,9.23
2023-11-05T20:25:02.261Z,9.32
2023-11-05T20:27:30.093Z,9.42
2023-11-05T20:29:57.956Z,9.46
2023-11-05T20:32:25.768Z,9.48
2023-11-05T20:34:55.517Z,9.55
2023-11-05T20:37:24.240Z,9.62
2023-11-05T20:39:52.168Z,9.67
2023-11-05T20:42:21.071Z,9.68
2023-11-05T20:44:48.892Z,9.71
2023-11-05T20:47:16.788Z,9.76
2023-11-05T20:49:45.512Z,9.81
2023-11-05T20:52:13.552Z,9.88
2023-11-05T20:54:41.372Z,9.96
2023-11-05T20:57:09.265Z,10.04
2023-11-05T20:59:37.250Z,10.10
2023-11-05T21:02:05.293Z,10.14
2023-11-05T21:04:33.173Z,10.14
2023-11-05T21:07:03.220Z,10.18
2023-11-05T21:09:31.241Z,10.25
2023-11-05T21:11:59.111Z,10.33
2023-11-05T21:14:27.757Z,10.37
2023-11-05T21:16:56.014Z,10.37
2023-11-05T21:19:24.023Z,10.39
2023-11-05T21:21:51.954Z,10.40
2023-11-05T21:24:19.821Z,10.43
2023-11-05T21:26:47.638Z,10.49
2023-11-05T21:29:17.813Z,10.47
2023-11-05T21:31:45.822Z,10.46
2023-11-05T21:34:13.878Z,10.46
2023-11-05T21:36:41.892Z,10.49
2023-11-05T21:39:14.966Z,10.50
2023-11-05T21:41:48.584Z,10.45
2023-11-05T21:44:16.589Z,10.44
2023-11-05T21:46:45.958Z,10.48
2023-11-05T21:49:15.253Z,10.53
2023-11-05T21:51:43.089Z,10.53
2023-11-05T21:54:13.886Z,10.56
2023-11-05T21:56:43.726Z,10.54
2023-11-05T21:59:11.685Z,10.57
2023-11-05T22:01:39.574Z,10.60
2023-11-05T22:04:07.550Z,10.62
2023-11-05T22:06:35.625Z,10.59
2023-11-05T22:09:04.028Z,10.59
2023-11-05T22:11:31.865Z,10.60
2023-11-05T22:13:59.790Z,10.61
2023-11-05T22:16:27.631Z,10.64
2023-11-05T22:18:55.530Z,10.62
2023-11-05T22:21:23.440Z,10.63
2023-11-05T22:23:51.328Z,10.58
2023-11-05T22:26:19.210Z,10.61
2023-11-05T22:28:47.105Z,10.63
2023-11-05T22:31:15.094Z,10.64
2023-11-05T22:33:42.985Z,10.61
2023-11-05T22:36:11.837Z,10.59
2023-11-05T22:38:39.739Z,10.57
2023-11-05T22:41:07.789Z,10.56
2023-11-05T22:43:35.605Z,10.57
2023-11-05T22:46:04.137Z,10.53
2023-11-05T22:48:32.025Z,10.50
2023-11-05T22:50:59.967Z,10.48
2023-11-05T22:53:27.848Z,10.48
2023-11-05T22:55:55.826Z,10.49
2023-11-05T22:58:23.833Z,10.52
2023-11-05T23:00:52.687Z,10.51
2023-11-05T23:03:21.308Z,10.52
2023-11-05T23:05:53.688Z,10.52
2023-11-05T23:08:25.284Z,10.56
2023-11-05T23:10:53.180Z,10.55
2023-11-05T23:13:21.334Z,10.52
2023-11-05T23:15:50.242Z,10.47
2023-11-05T23:18:19.027Z,10.48
2023-11-05T23:20:46.922Z,10.49
2023-11-05T23:23:16.536Z,10.46
2023-11-05T23:25:44.634Z,10.40
2023-11-05T23:28:14.442Z,10.41
2023-11-05T23:30:42.653Z,10.42
2023-11-05T23:33:10.644Z,10.45
2023-11-05T23:35:42.138Z,10.43
2023-11-05T23:38:10.062Z,10.41
2023-11-05T23:40:38.547Z,10.38
2023-11-05T23:43:06.829Z,10.41
2023-11-05T23:45:35.323Z,10.42
2023-11-05T23:48:03.455Z,10.45
2023-11-05T23:50:31.378Z,10.42
2023-11-05T23:52:59.492Z,10.38
2023-11-05T23:55:27.428Z,10.37
2023-11-05T23:57:55.602Z,10.42
